sensor_id;sensor_type;location;lat;lon;timestamp;pressure;altitude;pressure_sealevel;temperature;humidity
81509;BME280;70930;52.412;13.554;2024-01-16T00:00:13;99548.38;;;-0.24;81.54
81509;BME280;70930;52.412;13.554;2024-01-16T00:02:59;99566.78;;;-0.16;80.73
81509;BME280;70930;52.412;13.554;2024-01-16T00:05:47;99560.06;;;-0.09;79.57
81509;BME280;70930;52.412;13.554;2024-01-16T00:08:33;99561.59;;;-0.06;79.61
81509;BME280;70930;52.412;13.554;2024-01-16T00:11:18;99562.69;;;0.01;79.62
81509;BME280;70930;52.412;13.554;2024-01-16T00:14:07;99571.03;;;-0.25;79.42
81509;BME280;70930;52.412;13.554;2024-01-16T00:16:52;99569.94;;;-0.12;79.31
81509;BME280;70930;52.412;13.554;2024-01-16T00:19:39;99568.31;;;-0.04;79.35
81509;BME280;70930;52.412;13.554;2024-01-16T00:22:26;99586.16;;;-0.18;81.02
81509;BME280;70930;52.412;13.554;2024-01-16T00:25:12;99578.59;;;-0.21;82.00
81509;BME280;70930;52.412;13.554;2024-01-16T00:27:57;99571.84;;;-0.34;83.12
81509;BME280;70930;52.412;13.554;2024-01-16T00:30:43;99582.13;;;-0.42;84.32
81509;BME280;70930;52.412;13.554;2024-01-16T00:33:29;99585.38;;;-0.50;84.69
81509;BME280;70930;52.412;13.554;2024-01-16T00:36:15;99573.47;;;-0.42;84.73
81509;BME280;70930;52.412;13.554;2024-01-16T00:39:01;99577.63;;;-0.30;84.11
81509;BME280;70930;52.412;13.554;2024-01-16T00:41:48;99570.50;;;-0.18;83.44
81509;BME280;70930;52.412;13.554;2024-01-16T00:44:34;99588.88;;;-0.70;85.96
81509;BME280;70930;52.412;13.554;2024-01-16T00:47:20;99586.06;;;-0.47;86.31
81509;BME280;70930;52.412;13.554;2024-01-16T00:50:06;99582.22;;;-0.53;85.94
81509;BME280;70930;52.412;13.554;2024-01-16T00:52:52;99582.38;;;-0.55;87.03
81509;BME280;70930;52.412;13.554;2024-01-16T00:55:37;99588.56;;;-0.46;86.77
81509;BME280;70930;52.412;13.554;2024-01-16T00:58:24;99596.06;;;-0.53;87.14
81509;BME280;70930;52.412;13.554;2024-01-16T01:01:10;99605.78;;;-0.64;88.88
81509;BME280;70930;52.412;13.554;2024-01-16T01:03:55;99604.88;;;-0.54;88.61
81509;BME280;70930;52.412;13.554;2024-01-16T01:06:41;99626.63;;;-0.95;91.59
81509;BME280;70930;52.412;13.554;2024-01-16T01:09:27;99626.72;;;-0.76;91.14
81509;BME280;70930;52.412;13.554;2024-01-16T01:12:12;99640.81;;;-1.09;92.79
81509;BME280;70930;52.412;13.554;2024-01-16T01:14:58;99637.84;;;-0.94;92.95
81509;BME280;70930;52.412;13.554;2024-01-16T01:17:44;99636.19;;;-1.05;93.37
81509;BME280;70930;52.412;13.554;2024-01-16T01:20:30;99641.31;;;-1.36;94.73
81509;BME280;70930;52.412;13.554;2024-01-16T01:23:16;99647.91;;;-1.53;95.08
81509;BME280;70930;52.412;13.554;2024-01-16T01:26:01;99658.47;;;-1.65;95.65
81509;BME280;70930;52.412;13.554;2024-01-16T01:28:51;99670.34;;;-1.73;95.92
81509;BME280;70930;52.412;13.554;2024-01-16T01:31:38;99663.47;;;-1.85;95.95
81509;BME280;70930;52.412;13.554;2024-01-16T01:34:27;99670.00;;;-1.90;97.01
81509;BME280;70930;52.412;13.554;2024-01-16T01:37:12;99659.13;;;-1.84;96.17
81509;BME280;70930;52.412;13.554;2024-01-16T01:39:58;99686.19;;;-1.76;95.68
81509;BME280;70930;52.412;13.554;2024-01-16T01:42:44;99683.75;;;-1.88;95.60
81509;BME280;70930;52.412;13.554;2024-01-16T01:45:36;99700.19;;;-1.99;96.06
81509;BME280;70930;52.412;13.554;2024-01-16T01:48:33;99686.34;;;-1.88;95.19
81509;BME280;70930;52.412;13.554;2024-01-16T01:51:34;99668.75;;;-1.96;94.61
81509;BME280;70930;52.412;13.554;2024-01-16T01:54:26;99673.78;;;-1.83;93.64
81509;BME280;70930;52.412;13.554;2024-01-16T01:57:18;99680.19;;;-1.99;94.40
81509;BME280;70930;52.412;13.554;2024-01-16T02:00:05;99693.56;;;-1.92;94.32
81509;BME280;70930;52.412;13.554;2024-01-16T02:02:51;99671.06;;;-1.93;93.61
81509;BME280;70930;52.412;13.554;2024-01-16T02:05:38;99673.34;;;-1.88;91.61
81509;BME280;70930;52.412;13.554;2024-01-16T02:08:27;99689.78;;;-1.99;92.69
81509;BME280;70930;52.412;13.554;2024-01-16T02:11:13;99687.41;;;-2.02;91.93
81509;BME280;70930;52.412;13.554;2024-01-16T02:14:02;99701.69;;;-1.85;91.67
81509;BME280;70930;52.412;13.554;2024-01-16T02:16:52;99703.00;;;-1.80;91.42
81509;BME280;70930;52.412;13.554;2024-01-16T02:19:38;99706.63;;;-1.60;90.53
81509;BME280;70930;52.412;13.554;2024-01-16T02:22:31;99703.09;;;-1.70;89.67
81509;BME280;70930;52.412;13.554;2024-01-16T02:25:19;99716.78;;;-1.57;90.02
81509;BME280;70930;52.412;13.554;2024-01-16T02:28:07;99709.09;;;-1.58;89.07
81509;BME280;70930;52.412;13.554;2024-01-16T02:30:55;99717.38;;;-1.53;89.00
81509;BME280;70930;52.412;13.554;2024-01-16T02:33:42;99734.06;;;-1.56;88.45
81509;BME280;70930;52.412;13.554;2024-01-16T02:36:28;99729.22;;;-1.60;88.14
81509;BME280;70930;52.412;13.554;2024-01-16T02:39:14;99739.84;;;-1.52;87.55
81509;BME280;70930;52.412;13.554;2024-01-16T02:42:00;99731.03;;;-1.72;87.24
81509;BME280;70930;52.412;13.554;2024-01-16T02:44:46;99737.13;;;-1.62;87.51
81509;BME280;70930;52.412;13.554;2024-01-16T02:47:33;99746.03;;;-1.64;87.21
81509;BME280;70930;52.412;13.554;2024-01-16T02:50:19;99747.84;;;-1.87;87.19
81509;BME280;70930;52.412;13.554;2024-01-16T02:53:05;99759.66;;;-1.83;87.41
81509;BME280;70930;52.412;13.554;2024-01-16T02:55:51;99762.50;;;-1.75;87.57
81509;BME280;70930;52.412;13.554;2024-01-16T02:58:38;99766.75;;;-1.74;86.62
81509;BME280;70930;52.412;13.554;2024-01-16T03:01:24;99776.44;;;-1.65;87.44
81509;BME280;70930;52.412;13.554;2024-01-16T03:04:10;99782.84;;;-1.80;88.47
81509;BME280;70930;52.412;13.554;2024-01-16T03:06:55;99780.84;;;-1.88;88.06
81509;BME280;70930;52.412;13.554;2024-01-16T03:09:41;99793.25;;;-1.69;87.89
81509;BME280;70930;52.412;13.554;2024-01-16T03:12:27;99794.06;;;-1.68;86.83
81509;BME280;70930;52.412;13.554;2024-01-16T03:15:13;99805.31;;;-1.79;88.05
81509;BME280;70930;52.412;13.554;2024-01-16T03:17:59;99798.31;;;-1.67;87.48
81509;BME280;70930;52.412;13.554;2024-01-16T03:20:45;99810.50;;;-1.57;86.54
81509;BME280;70930;52.412;13.554;2024-01-16T03:23:34;99805.63;;;-1.61;86.58
81509;BME280;70930;52.412;13.554;2024-01-16T03:26:19;99810.38;;;-1.66;87.15
81509;BME280;70930;52.412;13.554;2024-01-16T03:29:05;99801.41;;;-1.74;87.07
81509;BME280;70930;52.412;13.554;2024-01-16T03:31:51;99811.22;;;-1.66;86.86
81509;BME280;70930;52.412;13.554;2024-01-16T03:34:40;99828.38;;;-1.86;88.65
81509;BME280;70930;52.412;13.554;2024-01-16T03:37:26;99826.13;;;-1.68;87.99
81509;BME280;70930;52.412;13.554;2024-01-16T03:40:14;99832.03;;;-1.66;88.20
81509;BME280;70930;52.412;13.554;2024-01-16T03:43:01;99836.78;;;-1.60;87.68
81509;BME280;70930;52.412;13.554;2024-01-16T03:45:50;99838.91;;;-1.87;89.16
81509;BME280;70930;52.412;13.554;2024-01-16T03:48:36;99847.91;;;-1.80;89.35
81509;BME280;70930;52.412;13.554;2024-01-16T03:51:22;99852.38;;;-1.82;89.45
81509;BME280;70930;52.412;13.554;2024-01-16T03:54:08;99857.50;;;-1.81;89.07
81509;BME280;70930;52.412;13.554;2024-01-16T03:56:53;99874.19;;;-1.72;88.99
81509;BME280;70930;52.412;13.554;2024-01-16T03:59:39;99863.38;;;-1.90;89.28
81509;BME280;70930;52.412;13.554;2024-01-16T04:02:25;99860.69;;;-1.88;89.73
81509;BME280;70930;52.412;13.554;2024-01-16T04:05:11;99871.66;;;-1.85;89.95
81509;BME280;70930;52.412;13.554;2024-01-16T04:07:57;99870.97;;;-1.87;89.74
81509;BME280;70930;52.412;13.554;2024-01-16T04:10:43;99859.84;;;-1.78;88.20
81509;BME280;70930;52.412;13.554;2024-01-16T04:13:28;99871.81;;;-1.75;88.53
81509;BME280;70930;52.412;13.554;2024-01-16T04:16:22;99863.16;;;-1.87;89.27
81509;BME280;70930;52.412;13.554;2024-01-16T04:19:08;99882.09;;;-1.74;88.78
81509;BME280;70930;52.412;13.554;2024-01-16T04:21:56;99877.72;;;-1.84;89.18
81509;BME280;70930;52.412;13.554;2024-01-16T04:24:42;99883.38;;;-1.79;89.07
81509;BME280;70930;52.412;13.554;2024-01-16T04:27:29;99892.41;;;-1.72;88.10
81509;BME280;70930;52.412;13.554;2024-01-16T04:30:15;99885.63;;;-1.86;88.41
81509;BME280;70930;52.412;13.554;2024-01-16T04:33:06;99883.84;;;-1.85;88.80
81509;BME280;70930;52.412;13.554;2024-01-16T04:35:52;99885.28;;;-1.92;89.43
81509;BME280;70930;52.412;13.554;2024-01-16T04:38:38;99885.84;;;-2.11;90.43
81509;BME280;70930;52.412;13.554;2024-01-16T04:41:24;99893.94;;;-1.81;89.01
81509;BME280;70930;52.412;13.554;2024-01-16T04:44:09;99890.50;;;-1.92;89.46
81509;BME280;70930;52.412;13.554;2024-01-16T04:46:55;99894.75;;;-1.91;89.46
81509;BME280;70930;52.412;13.554;2024-01-16T04:49:42;99891.19;;;-1.79;88.21
81509;BME280;70930;52.412;13.554;2024-01-16T04:52:27;99892.59;;;-1.98;89.13
81509;BME280;70930;52.412;13.554;2024-01-16T04:55:13;99892.50;;;-1.96;88.96
81509;BME280;70930;52.412;13.554;2024-01-16T04:58:02;99891.75;;;-1.98;89.25
81509;BME280;70930;52.412;13.554;2024-01-16T05:00:48;99900.63;;;-2.01;89.17
81509;BME280;70930;52.412;13.554;2024-01-16T05:03:33;99895.91;;;-1.95;88.38
81509;BME280;70930;52.412;13.554;2024-01-16T05:06:19;99892.50;;;-1.96;88.27
81509;BME280;70930;52.412;13.554;2024-01-16T05:09:07;99903.91;;;-2.10;88.66
81509;BME280;70930;52.412;13.554;2024-01-16T05:11:54;99900.28;;;-1.96;88.15
81509;BME280;70930;52.412;13.554;2024-01-16T05:14:40;99906.28;;;-2.07;88.50
81509;BME280;70930;52.412;13.554;2024-01-16T05:17:26;99907.97;;;-1.94;88.64
81509;BME280;70930;52.412;13.554;2024-01-16T05:20:12;99907.84;;;-2.04;89.12
81509;BME280;70930;52.412;13.554;2024-01-16T05:23:00;99908.41;;;-2.01;88.93
81509;BME280;70930;52.412;13.554;2024-01-16T05:25:47;99915.41;;;-2.01;88.10
81509;BME280;70930;52.412;13.554;2024-01-16T05:28:33;99911.97;;;-2.02;89.11
81509;BME280;70930;52.412;13.554;2024-01-16T05:31:18;99918.97;;;-1.91;88.87
81509;BME280;70930;52.412;13.554;2024-01-16T05:34:05;99916.72;;;-1.95;88.57
81509;BME280;70930;52.412;13.554;2024-01-16T05:36:51;99920.16;;;-1.95;87.64
81509;BME280;70930;52.412;13.554;2024-01-16T05:39:37;99929.63;;;-1.94;87.39
81509;BME280;70930;52.412;13.554;2024-01-16T05:42:22;99924.38;;;-2.05;88.29
81509;BME280;70930;52.412;13.554;2024-01-16T05:45:08;99938.91;;;-2.14;87.95
81509;BME280;70930;52.412;13.554;2024-01-16T05:47:54;99938.78;;;-2.12;88.11
81509;BME280;70930;52.412;13.554;2024-01-16T05:50:41;99950.13;;;-2.13;88.05
81509;BME280;70930;52.412;13.554;2024-01-16T05:53:27;99947.91;;;-2.07;87.29
81509;BME280;70930;52.412;13.554;2024-01-16T05:56:15;99955.50;;;-2.04;87.11
81509;BME280;70930;52.412;13.554;2024-01-16T05:59:01;99951.25;;;-2.29;87.35
81509;BME280;70930;52.412;13.554;2024-01-16T06:01:49;99962.22;;;-2.36;88.38
81509;BME280;70930;52.412;13.554;2024-01-16T06:04:37;99970.84;;;-2.36;87.31
81509;BME280;70930;52.412;13.554;2024-01-16T06:07:23;99973.44;;;-2.60;87.33
81509;BME280;70930;52.412;13.554;2024-01-16T06:10:12;99976.44;;;-2.53;87.79
81509;BME280;70930;52.412;13.554;2024-01-16T06:12:59;99973.91;;;-2.66;89.53
81509;BME280;70930;52.412;13.554;2024-01-16T06:15:44;99986.13;;;-2.92;91.22
81509;BME280;70930;52.412;13.554;2024-01-16T06:18:30;99984.34;;;-2.79;92.21
81509;BME280;70930;52.412;13.554;2024-01-16T06:21:16;99984.78;;;-2.61;91.75
81509;BME280;70930;52.412;13.554;2024-01-16T06:24:05;99991.03;;;-2.63;92.22
81509;BME280;70930;52.412;13.554;2024-01-16T06:26:53;100003.09;;;-2.62;91.98
81509;BME280;70930;52.412;13.554;2024-01-16T06:29:42;100002.22;;;-2.50;90.91
81509;BME280;70930;52.412;13.554;2024-01-16T06:32:28;100013.84;;;-2.43;90.60
81509;BME280;70930;52.412;13.554;2024-01-16T06:35:13;100029.47;;;-2.56;92.07
81509;BME280;70930;52.412;13.554;2024-01-16T06:37:59;100023.63;;;-2.47;91.54
81509;BME280;70930;52.412;13.554;2024-01-16T06:40:45;100014.00;;;-2.33;90.70
81509;BME280;70930;52.412;13.554;2024-01-16T06:43:31;100022.59;;;-2.20;90.53
81509;BME280;70930;52.412;13.554;2024-01-16T06:46:17;100026.84;;;-2.19;89.61
81509;BME280;70930;52.412;13.554;2024-01-16T06:49:02;100025.16;;;-2.31;89.21
81509;BME280;70930;52.412;13.554;2024-01-16T06:51:48;100026.78;;;-2.30;89.90
81509;BME280;70930;52.412;13.554;2024-01-16T06:54:34;100041.25;;;-2.26;89.53
81509;BME280;70930;52.412;13.554;2024-01-16T06:57:20;100028.63;;;-2.19;89.69
81509;BME280;70930;52.412;13.554;2024-01-16T07:00:06;100039.19;;;-2.10;90.19
81509;BME280;70930;52.412;13.554;2024-01-16T07:02:55;100053.13;;;-2.11;89.29
81509;BME280;70930;52.412;13.554;2024-01-16T07:05:41;100045.88;;;-2.18;89.57
81509;BME280;70930;52.412;13.554;2024-01-16T07:08:28;100047.19;;;-2.37;91.14
81509;BME280;70930;52.412;13.554;2024-01-16T07:11:14;100052.59;;;-2.40;92.26
81509;BME280;70930;52.412;13.554;2024-01-16T07:14:00;100053.50;;;-2.28;91.44
81509;BME280;70930;52.412;13.554;2024-01-16T07:16:46;100065.47;;;-2.26;91.67
81509;BME280;70930;52.412;13.554;2024-01-16T07:19:32;100063.69;;;-2.25;91.70
81509;BME280;70930;52.412;13.554;2024-01-16T07:22:18;100074.63;;;-2.33;91.76
81509;BME280;70930;52.412;13.554;2024-01-16T07:25:03;100076.94;;;-2.04;91.54
81509;BME280;70930;52.412;13.554;2024-01-16T07:27:52;100085.66;;;-2.05;90.57
81509;BME280;70930;52.412;13.554;2024-01-16T07:30:40;100097.25;;;-2.09;91.05
81509;BME280;70930;52.412;13.554;2024-01-16T07:33:26;100094.03;;;-2.13;91.47
81509;BME280;70930;52.412;13.554;2024-01-16T07:36:17;100097.69;;;-2.15;91.39
81509;BME280;70930;52.412;13.554;2024-01-16T07:39:02;100103.38;;;-2.10;91.60
81509;BME280;70930;52.412;13.554;2024-01-16T07:41:51;100105.59;;;-1.93;91.13
81509;BME280;70930;52.412;13.554;2024-01-16T07:44:37;100099.41;;;-1.79;90.19
81509;BME280;70930;52.412;13.554;2024-01-16T07:47:26;100098.34;;;-1.77;90.59
81509;BME280;70930;52.412;13.554;2024-01-16T07:50:11;100099.41;;;-1.79;90.63
81509;BME280;70930;52.412;13.554;2024-01-16T07:52:57;100087.88;;;-1.64;90.25
81509;BME280;70930;52.412;13.554;2024-01-16T07:55:43;100096.78;;;-1.55;90.31
81509;BME280;70930;52.412;13.554;2024-01-16T07:58:29;100102.41;;;-1.61;90.42
81509;BME280;70930;52.412;13.554;2024-01-16T08:01:19;100113.78;;;-1.62;89.53
81509;BME280;70930;52.412;13.554;2024-01-16T08:04:05;100103.72;;;-1.67;90.02
81509;BME280;70930;52.412;13.554;2024-01-16T08:06:52;100105.41;;;-1.55;90.38
81509;BME280;70930;52.412;13.554;2024-01-16T08:09:38;100113.13;;;-1.42;89.83
81509;BME280;70930;52.412;13.554;2024-01-16T08:12:23;100119.75;;;-1.49;89.90
81509;BME280;70930;52.412;13.554;2024-01-16T08:15:10;100115.13;;;-1.45;90.12
81509;BME280;70930;52.412;13.554;2024-01-16T08:17:58;100122.38;;;-1.38;89.32
81509;BME280;70930;52.412;13.554;2024-01-16T08:20:51;100124.41;;;-1.30;89.37
81509;BME280;70930;52.412;13.554;2024-01-16T08:23:37;100112.81;;;-1.26;89.26
81509;BME280;70930;52.412;13.554;2024-01-16T08:26:22;100116.34;;;-1.38;89.39
81509;BME280;70930;52.412;13.554;2024-01-16T08:29:08;100133.91;;;-1.29;89.40
81509;BME280;70930;52.412;13.554;2024-01-16T08:31:56;100129.28;;;-1.37;89.55
81509;BME280;70930;52.412;13.554;2024-01-16T08:34:42;100143.28;;;-1.15;88.89
81509;BME280;70930;52.412;13.554;2024-01-16T08:37:32;100138.28;;;-1.18;89.52
81509;BME280;70930;52.412;13.554;2024-01-16T08:40:20;100142.13;;;-1.00;88.63
81509;BME280;70930;52.412;13.554;2024-01-16T08:43:07;100143.41;;;-1.17;89.38
81509;BME280;70930;52.412;13.554;2024-01-16T08:45:56;100141.66;;;-1.05;88.84
81509;BME280;70930;52.412;13.554;2024-01-16T08:48:42;100138.34;;;-0.96;88.72
81509;BME280;70930;52.412;13.554;2024-01-16T08:51:27;100156.13;;;-0.79;88.38
81509;BME280;70930;52.412;13.554;2024-01-16T08:54:16;100148.44;;;-0.80;87.76
81509;BME280;70930;52.412;13.554;2024-01-16T08:57:04;100152.84;;;-0.81;88.06
81509;BME280;70930;52.412;13.554;2024-01-16T08:59:55;100149.63;;;-0.84;87.69
81509;BME280;70930;52.412;13.554;2024-01-16T09:02:44;100138.84;;;-0.80;88.40
81509;BME280;70930;52.412;13.554;2024-01-16T09:05:34;100135.41;;;-0.80;88.99
81509;BME280;70930;52.412;13.554;2024-01-16T09:08:31;100143.84;;;-0.65;88.28
81509;BME280;70930;52.412;13.554;2024-01-16T09:11:17;100146.66;;;-0.91;88.16
81509;BME280;70930;52.412;13.554;2024-01-16T09:14:03;100152.63;;;-0.66;88.25
81509;BME280;70930;52.412;13.554;2024-01-16T09:16:49;100149.66;;;-0.62;88.73
81509;BME280;70930;52.412;13.554;2024-01-16T09:19:37;100151.44;;;-0.62;87.62
81509;BME280;70930;52.412;13.554;2024-01-16T09:22:23;100156.16;;;-0.67;88.41
81509;BME280;70930;52.412;13.554;2024-01-16T09:25:09;100159.94;;;-0.60;87.88
81509;BME280;70930;52.412;13.554;2024-01-16T09:28:00;100161.28;;;-0.55;87.94
81509;BME280;70930;52.412;13.554;2024-01-16T09:30:48;100156.63;;;-0.40;87.43
81509;BME280;70930;52.412;13.554;2024-01-16T09:33:34;100160.78;;;-0.48;88.74
81509;BME280;70930;52.412;13.554;2024-01-16T09:36:25;100166.38;;;-0.42;88.13
81509;BME280;70930;52.412;13.554;2024-01-16T09:39:11;100160.78;;;-0.26;87.37
81509;BME280;70930;52.412;13.554;2024-01-16T09:42:00;100157.84;;;-0.66;87.61
81509;BME280;70930;52.412;13.554;2024-01-16T09:44:51;100167.50;;;-0.80;89.38
81509;BME280;70930;52.412;13.554;2024-01-16T09:47:37;100172.53;;;-0.54;88.98
81509;BME280;70930;52.412;13.554;2024-01-16T09:50:24;100167.41;;;-0.44;88.05
81509;BME280;70930;52.412;13.554;2024-01-16T09:53:10;100166.72;;;-0.46;89.27
81509;BME280;70930;52.412;13.554;2024-01-16T09:56:01;100177.16;;;-0.46;88.55
81509;BME280;70930;52.412;13.554;2024-01-16T09:58:51;100175.13;;;-0.32;89.38
81509;BME280;70930;52.412;13.554;2024-01-16T10:01:42;100177.94;;;-0.12;88.58
81509;BME280;70930;52.412;13.554;2024-01-16T10:04:34;100168.09;;;-0.09;87.86
81509;BME280;70930;52.412;13.554;2024-01-16T10:07:20;100179.88;;;-0.03;88.64
81509;BME280;70930;52.412;13.554;2024-01-16T10:10:14;100175.47;;;-0.25;88.50
81509;BME280;70930;52.412;13.554;2024-01-16T10:13:07;100171.31;;;-0.05;87.43
81509;BME280;70930;52.412;13.554;2024-01-16T10:15:53;100184.34;;;0.06;88.19
81509;BME280;70930;52.412;13.554;2024-01-16T10:18:43;100172.44;;;0.24;88.33
81509;BME280;70930;52.412;13.554;2024-01-16T10:21:29;100179.16;;;0.38;87.41
81509;BME280;70930;52.412;13.554;2024-01-16T10:24:22;100178.06;;;0.52;87.20
81509;BME280;70930;52.412;13.554;2024-01-16T10:27:08;100179.31;;;0.26;87.57
81509;BME280;70930;52.412;13.554;2024-01-16T10:29:59;100186.47;;;0.56;86.12
81509;BME280;70930;52.412;13.554;2024-01-16T10:32:45;100180.63;;;0.63;85.96
81509;BME280;70930;52.412;13.554;2024-01-16T10:35:34;100189.75;;;0.69;86.69
81509;BME280;70930;52.412;13.554;2024-01-16T10:38:25;100182.47;;;0.72;85.66
81509;BME280;70930;52.412;13.554;2024-01-16T10:41:20;100181.47;;;0.64;85.35
81509;BME280;70930;52.412;13.554;2024-01-16T10:44:13;100184.44;;;0.59;85.75
81509;BME280;70930;52.412;13.554;2024-01-16T10:47:22;100179.25;;;0.16;88.02
81509;BME280;70930;52.412;13.554;2024-01-16T10:50:08;100178.06;;;0.52;87.07
81509;BME280;70930;52.412;13.554;2024-01-16T10:53:07;100188.25;;;0.87;85.89
81509;BME280;70930;52.412;13.554;2024-01-16T10:55:56;100184.38;;;1.03;84.41
81509;BME280;70930;52.412;13.554;2024-01-16T11:01:59;100178.47;;;0.89;84.62
81509;BME280;70930;52.412;13.554;2024-01-16T11:04:53;100177.34;;;1.03;84.02
81509;BME280;70930;52.412;13.554;2024-01-16T11:08:05;100172.03;;;0.93;82.94
81509;BME280;70930;52.412;13.554;2024-01-16T11:10:53;100177.78;;;0.87;83.98
81509;BME280;70930;52.412;13.554;2024-01-16T11:13:42;100175.72;;;0.70;84.57
81509;BME280;70930;52.412;13.554;2024-01-16T11:16:34;100175.19;;;0.55;84.84
81509;BME280;70930;52.412;13.554;2024-01-16T11:19:23;100182.06;;;0.56;85.22
81509;BME280;70930;52.412;13.554;2024-01-16T11:22:14;100181.59;;;0.51;85.31
81509;BME280;70930;52.412;13.554;2024-01-16T11:25:31;100167.44;;;0.65;83.88
81509;BME280;70930;52.412;13.554;2024-01-16T11:28:20;100169.78;;;0.68;83.56
81509;BME280;70930;52.412;13.554;2024-01-16T11:31:28;100174.88;;;0.69;84.09
81509;BME280;70930;52.412;13.554;2024-01-16T11:37:31;100159.34;;;0.68;84.06
81509;BME280;70930;52.412;13.554;2024-01-16T11:47:00;100161.28;;;0.55;85.03
81509;BME280;70930;52.412;13.554;2024-01-16T11:50:07;100162.59;;;0.60;84.86
81509;BME280;70930;52.412;13.554;2024-01-16T11:52:54;100163.66;;;0.58;84.27
81509;BME280;70930;52.412;13.554;2024-01-16T12:02:23;100166.50;;;0.55;84.58
81509;BME280;70930;52.412;13.554;2024-01-16T12:05:13;100160.97;;;0.48;85.44
81509;BME280;70930;52.412;13.554;2024-01-16T12:07:59;100153.38;;;0.45;85.58
81509;BME280;70930;52.412;13.554;2024-01-16T12:10:47;100151.22;;;0.50;85.11
81509;BME280;70930;52.412;13.554;2024-01-16T12:13:36;100148.41;;;0.63;85.16
81509;BME280;70930;52.412;13.554;2024-01-16T12:16:24;100146.47;;;0.55;85.33
81509;BME280;70930;52.412;13.554;2024-01-16T12:19:10;100149.50;;;0.39;84.76
81509;BME280;70930;52.412;13.554;2024-01-16T12:21:57;100148.03;;;0.46;85.27
81509;BME280;70930;52.412;13.554;2024-01-16T12:24:45;100140.31;;;0.45;85.32
81509;BME280;70930;52.412;13.554;2024-01-16T12:27:34;100133.34;;;0.34;85.47
81509;BME280;70930;52.412;13.554;2024-01-16T12:30:35;100122.84;;;0.45;85.02
81509;BME280;70930;52.412;13.554;2024-01-16T12:33:22;100129.78;;;0.67;85.35
81509;BME280;70930;52.412;13.554;2024-01-16T12:36:09;100117.84;;;0.74;84.63
81509;BME280;70930;52.412;13.554;2024-01-16T12:38:58;100128.13;;;0.87;84.37
81509;BME280;70930;52.412;13.554;2024-01-16T12:41:46;100117.06;;;0.63;85.42
81509;BME280;70930;52.412;13.554;2024-01-16T12:44:33;100113.53;;;0.64;85.20
81509;BME280;70930;52.412;13.554;2024-01-16T12:47:19;100114.34;;;0.43;85.95
81509;BME280;70930;52.412;13.554;2024-01-16T12:50:11;100114.59;;;0.40;87.15
81509;BME280;70930;52.412;13.554;2024-01-16T12:53:05;100105.91;;;0.40;86.76
81509;BME280;70930;52.412;13.554;2024-01-16T12:56:06;100102.53;;;0.49;85.49
81509;BME280;70930;52.412;13.554;2024-01-16T12:58:55;100090.25;;;0.61;85.72
81509;BME280;70930;52.412;13.554;2024-01-16T13:01:49;100101.34;;;0.53;85.38
81509;BME280;70930;52.412;13.554;2024-01-16T13:04:36;100094.13;;;0.66;84.65
81509;BME280;70930;52.412;13.554;2024-01-16T13:07:22;100095.81;;;0.67;84.42
81509;BME280;70930;52.412;13.554;2024-01-16T13:10:11;100102.16;;;0.74;84.20
81509;BME280;70930;52.412;13.554;2024-01-16T13:13:35;100092.72;;;0.62;84.75
81509;BME280;70930;52.412;13.554;2024-01-16T13:16:27;100100.38;;;0.54;85.11
81509;BME280;70930;52.412;13.554;2024-01-16T13:19:16;100103.19;;;0.62;85.27
81509;BME280;70930;52.412;13.554;2024-01-16T13:22:04;100099.31;;;0.57;86.44
81509;BME280;70930;52.412;13.554;2024-01-16T13:24:51;100100.81;;;0.38;86.10
81509;BME280;70930;52.412;13.554;2024-01-16T13:27:37;100098.19;;;0.38;87.42
81509;BME280;70930;52.412;13.554;2024-01-16T13:30:22;100095.28;;;0.53;86.58
81509;BME280;70930;52.412;13.554;2024-01-16T13:33:13;100110.09;;;0.63;85.61
81509;BME280;70930;52.412;13.554;2024-01-16T13:36:10;100101.47;;;0.52;84.77
81509;BME280;70930;52.412;13.554;2024-01-16T13:38:59;100085.31;;;0.46;85.84
81509;BME280;70930;52.412;13.554;2024-01-16T13:41:48;100103.91;;;0.64;84.18
81509;BME280;70930;52.412;13.554;2024-01-16T13:44:39;100107.97;;;0.57;84.50
81509;BME280;70930;52.412;13.554;2024-01-16T13:47:25;100105.97;;;0.70;83.86
81509;BME280;70930;52.412;13.554;2024-01-16T13:50:13;100097.25;;;0.60;82.92
81509;BME280;70930;52.412;13.554;2024-01-16T13:53:02;100101.53;;;0.61;83.00
81509;BME280;70930;52.412;13.554;2024-01-16T13:55:48;100103.81;;;0.55;82.87
81509;BME280;70930;52.412;13.554;2024-01-16T13:58:33;100106.56;;;0.53;83.28
81509;BME280;70930;52.412;13.554;2024-01-16T14:01:23;100101.38;;;0.63;83.21
81509;BME280;70930;52.412;13.554;2024-01-16T14:04:08;100097.06;;;0.52;83.70
81509;BME280;70930;52.412;13.554;2024-01-16T14:06:56;100101.84;;;0.68;83.36
81509;BME280;70930;52.412;13.554;2024-01-16T14:09:48;100092.63;;;0.64;82.43
81509;BME280;70930;52.412;13.554;2024-01-16T14:12:38;100096.44;;;0.60;83.20
81509;BME280;70930;52.412;13.554;2024-01-16T14:15:51;100090.13;;;0.41;83.93
81509;BME280;70930;52.412;13.554;2024-01-16T14:18:46;100102.06;;;0.55;84.48
81509;BME280;70930;52.412;13.554;2024-01-16T14:21:34;100099.31;;;0.57;83.09
81509;BME280;70930;52.412;13.554;2024-01-16T14:24:20;100094.41;;;0.63;84.19
81509;BME280;70930;52.412;13.554;2024-01-16T14:27:07;100079.41;;;0.65;83.04
81509;BME280;70930;52.412;13.554;2024-01-16T14:30:04;100102.69;;;0.68;83.69
81509;BME280;70930;52.412;13.554;2024-01-16T14:32:56;100103.50;;;0.90;82.59
81509;BME280;70930;52.412;13.554;2024-01-16T14:35:48;100092.03;;;0.81;82.92
81509;BME280;70930;52.412;13.554;2024-01-16T14:38:34;100087.00;;;0.68;82.46
81509;BME280;70930;52.412;13.554;2024-01-16T14:41:27;100082.84;;;0.66;82.96
81509;BME280;70930;52.412;13.554;2024-01-16T14:44:19;100095.09;;;0.65;82.75
81509;BME280;70930;52.412;13.554;2024-01-16T14:47:25;100078.59;;;0.65;82.26
81509;BME280;70930;52.412;13.554;2024-01-16T14:50:11;100096.50;;;0.69;82.24
81509;BME280;70930;52.412;13.554;2024-01-16T14:53:06;100107.31;;;0.44;82.91
81509;BME280;70930;52.412;13.554;2024-01-16T14:55:55;100088.25;;;0.32;83.06